Time,TemperatureF,DewpointF,PressureIn,WindDirection,WindDirectionDegrees,WindSpeedMPH,WindSpeedGustMPH,Humidity,HourlyPrecipIn,Conditions,Clouds,dailyrainin,SolarRadiationWatts/m^2,SoftwareType,DateUTC
2013-10-26 00:03:00,42.0,28.0,-100.00,SSE,148,8.0,15.0,57,0.00,,,0.00,0.000000,,2013-10-26 05:03:00,
2013-10-26 00:43:00,42.0,29.0,-100.00,SSE,147,8.0,12.0,59,0.00,,,0.00,0.000000,,2013-10-26 05:43:00,
2013-10-26 00:52:00,42.0,29.0,-100.00,SSE,147,8.0,12.0,59,0.00,,,0.00,0.000000,,2013-10-26 05:52:00,
2013-10-26 01:02:00,42.0,29.0,-100.00,SSE,147,8.0,12.0,59,0.00,,,0.00,0.000000,,2013-10-26 06:02:00,
2013-10-26 01:42:00,41.0,29.0,-100.00,SSE,154,8.0,14.0,63,0.00,,,0.00,0.000000,,2013-10-26 06:42:00,
2013-10-26 01:52:00,41.0,29.0,-100.00,SSE,154,8.0,14.0,63,0.00,,,0.00,0.000000,,2013-10-26 06:52:00,
2013-10-26 02:02:00,41.0,29.0,-100.00,SSE,154,8.0,14.0,63,0.00,,,0.00,0.000000,,2013-10-26 07:02:00,
2013-10-26 02:42:00,40.0,30.0,-100.00,SE,141,7.0,11.0,66,0.00,,,0.00,0.000000,,2013-10-26 07:42:00,
2013-10-26 02:52:00,40.0,30.0,-100.00,SE,141,7.0,11.0,66,0.00,,,0.00,0.000000,,2013-10-26 07:52:00,
2013-10-26 03:02:00,40.0,30.0,-100.00,SE,141,7.0,11.0,66,0.00,,,0.00,0.000000,,2013-10-26 08:02:00,
2013-10-26 03:42:00,40.0,31.0,-100.00,SSE,153,4.0,8.0,69,0.00,,,0.00,0.000000,,2013-10-26 08:42:00,
2013-10-26 03:52:00,40.0,31.0,-100.00,SSE,153,4.0,8.0,69,0.00,,,0.00,0.000000,,2013-10-26 08:52:00,
2013-10-26 04:02:00,40.0,31.0,-100.00,SSE,153,4.0,8.0,69,0.00,,,0.00,0.000000,,2013-10-26 09:02:00,
2013-10-26 04:43:00,44.0,34.0,-100.00,SW,216,6.0,10.0,69,0.00,,,0.00,0.000000,,2013-10-26 09:43:00,
2013-10-26 04:53:00,44.0,34.0,-100.00,SW,216,6.0,10.0,69,0.00,,,0.00,0.000000,,2013-10-26 09:53:00,
2013-10-26 05:03:00,44.0,34.0,-100.00,SW,216,6.0,10.0,69,0.00,,,0.00,0.000000,,2013-10-26 10:03:00,
2013-10-26 05:42:00,44.0,33.0,-100.00,SW,232,7.0,10.0,65,0.00,,,0.00,0.000000,,2013-10-26 10:42:00,
2013-10-26 05:53:00,44.0,33.0,-100.00,SW,232,7.0,10.0,65,0.00,,,0.00,0.000000,,2013-10-26 10:53:00,
2013-10-26 06:03:00,44.0,33.0,-100.00,SW,232,7.0,10.0,65,0.00,,,0.00,0.000000,,2013-10-26 11:03:00,
2013-10-26 06:42:00,44.0,33.0,-100.00,WSW,240,7.0,11.0,66,0.00,,,0.00,0.000000,,2013-10-26 11:42:00,
2013-10-26 06:52:00,44.0,33.0,-100.00,WSW,240,7.0,11.0,66,0.00,,,0.00,0.000000,,2013-10-26 11:52:00,
2013-10-26 07:01:00,44.0,33.0,-100.00,WSW,240,7.0,11.0,66,0.00,,,0.00,0.000000,,2013-10-26 12:01:00,
2013-10-26 07:42:00,44.0,34.0,-100.00,SW,217,8.0,12.0,68,0.00,,,0.00,0.000000,,2013-10-26 12:42:00,
2013-10-26 07:52:00,44.0,34.0,-100.00,SW,217,8.0,12.0,68,0.00,,,0.00,0.000000,,2013-10-26 12:52:00,
2013-10-26 08:01:00,44.0,34.0,-100.00,SW,217,8.0,12.0,68,0.00,,,0.00,0.000000,,2013-10-26 13:01:00,
2013-10-26 08:42:00,44.0,34.0,-100.00,SW,229,7.0,12.0,68,0.00,,,0.00,22.000000,,2013-10-26 13:42:00,
2013-10-26 08:52:00,44.0,34.0,-100.00,SW,229,7.0,12.0,68,0.00,,,0.00,22.000000,,2013-10-26 13:52:00,
2013-10-26 09:01:00,44.0,34.0,-100.00,SW,229,7.0,12.0,68,0.00,,,0.00,22.000000,,2013-10-26 14:01:00,
2013-10-26 09:42:00,46.0,36.0,-100.00,WSW,242,5.0,9.0,67,0.00,,,0.00,106.000000,,2013-10-26 14:42:00,
2013-10-26 09:52:00,46.0,36.0,-100.00,WSW,242,5.0,9.0,67,0.00,,,0.00,106.000000,,2013-10-26 14:52:00,
2013-10-26 10:02:00,46.0,36.0,-100.00,WSW,242,5.0,9.0,67,0.00,,,0.00,106.000000,,2013-10-26 15:02:00,
2013-10-26 10:44:00,52.0,41.0,-100.00,WSW,238,6.0,10.0,67,0.00,,,0.00,250.000000,,2013-10-26 15:44:00,
2013-10-26 10:55:00,52.0,41.0,-100.00,WSW,238,6.0,10.0,67,0.00,,,0.00,250.000000,,2013-10-26 15:55:00,
2013-10-26 11:05:00,52.0,41.0,-100.00,WSW,238,6.0,10.0,67,0.00,,,0.00,250.000000,,2013-10-26 16:05:00,
2013-10-26 11:44:00,53.0,41.0,-100.00,SW,227,6.0,11.0,64,0.00,,,0.00,451.000000,,2013-10-26 16:44:00,
2013-10-26 11:54:00,53.0,41.0,-100.00,SW,227,6.0,11.0,64,0.00,,,0.00,451.000000,,2013-10-26 16:54:00,
2013-10-26 12:03:00,53.0,41.0,-100.00,SW,227,6.0,11.0,64,0.00,,,0.00,451.000000,,2013-10-26 17:03:00,
2013-10-26 12:43:00,54.0,43.0,-100.00,WSW,254,6.0,10.0,66,0.00,,,0.00,441.000000,,2013-10-26 17:43:00,
2013-10-26 12:52:00,54.0,43.0,-100.00,WSW,254,6.0,10.0,66,0.00,,,0.00,441.000000,,2013-10-26 17:52:00,
2013-10-26 13:02:00,54.0,43.0,-100.00,WSW,254,6.0,10.0,66,0.00,,,0.00,441.000000,,2013-10-26 18:02:00,
2013-10-26 13:42:00,54.0,44.0,-100.00,SSE,160,4.0,12.0,68,0.00,,,0.00,370.000000,,2013-10-26 18:42:00,
2013-10-26 13:52:00,54.0,44.0,-100.00,SSE,160,4.0,12.0,68,0.00,,,0.00,370.000000,,2013-10-26 18:52:00,
2013-10-26 14:01:00,54.0,44.0,-100.00,SSE,160,4.0,12.0,68,0.00,,,0.00,370.000000,,2013-10-26 19:01:00,
2013-10-26 14:42:00,56.0,46.0,-100.00,WSW,248,6.0,12.0,69,0.00,,,0.00,511.000000,,2013-10-26 19:42:00,
2013-10-26 14:52:00,56.0,46.0,-100.00,WSW,248,6.0,12.0,69,0.00,,,0.00,511.000000,,2013-10-26 19:52:00,
2013-10-26 15:02:00,56.0,46.0,-100.00,WSW,248,6.0,12.0,69,0.00,,,0.00,511.000000,,2013-10-26 20:02:00,
2013-10-26 15:43:00,54.0,45.0,-100.00,SSW,211,6.0,12.0,71,0.00,,,0.00,392.000000,,2013-10-26 20:43:00,
2013-10-26 15:52:00,54.0,45.0,-100.00,SSW,211,6.0,12.0,71,0.00,,,0.00,392.000000,,2013-10-26 20:52:00,
2013-10-26 16:02:00,54.0,45.0,-100.00,SSW,211,6.0,12.0,71,0.00,,,0.00,392.000000,,2013-10-26 21:02:00,
2013-10-26 16:43:00,57.0,47.0,-100.00,SW,224,5.0,10.0,70,0.00,,,0.00,420.000000,,2013-10-26 21:43:00,
2013-10-26 16:55:00,57.0,47.0,-100.00,SW,224,5.0,10.0,70,0.00,,,0.00,420.000000,,2013-10-26 21:55:00,
2013-10-26 17:03:00,57.0,47.0,-100.00,SW,224,5.0,10.0,70,0.00,,,0.00,420.000000,,2013-10-26 22:03:00,
2013-10-26 17:44:00,53.0,45.0,-100.00,WSW,240,5.0,9.0,74,0.00,,,0.00,269.000000,,2013-10-26 22:44:00,
2013-10-26 17:54:00,53.0,45.0,-100.00,WSW,240,5.0,9.0,74,0.00,,,0.00,269.000000,,2013-10-26 22:54:00,
2013-10-26 18:03:00,53.0,45.0,-100.00,WSW,240,5.0,9.0,74,0.00,,,0.00,269.000000,,2013-10-26 23:03:00,
2013-10-26 18:42:00,53.0,48.0,-100.00,WSW,252,7.0,11.0,83,0.00,,,0.00,38.000000,,2013-10-26 23:42:00,
2013-10-26 18:52:00,53.0,48.0,-100.00,WSW,252,7.0,11.0,83,0.00,,,0.00,38.000000,,2013-10-26 23:52:00,
2013-10-26 19:02:00,53.0,48.0,-100.00,WSW,252,7.0,11.0,83,0.00,,,0.00,38.000000,,2013-10-27 00:02:00,
2013-10-26 19:42:00,53.0,51.0,-100.00,West,278,7.0,14.0,93,0.00,,,0.00,1.000000,,2013-10-27 00:42:00,
2013-10-26 19:52:00,53.0,51.0,-100.00,West,278,7.0,14.0,93,0.00,,,0.00,1.000000,,2013-10-27 00:52:00,
2013-10-26 20:01:00,53.0,51.0,-100.00,West,278,7.0,14.0,93,0.00,,,0.00,1.000000,,2013-10-27 01:01:00,
2013-10-26 20:42:00,53.0,53.0,-100.00,NW,304,8.0,12.0,100,0.00,,,0.00,0.000000,,2013-10-27 01:42:00,
2013-10-26 20:52:00,53.0,53.0,-100.00,NW,304,8.0,12.0,100,0.00,,,0.00,0.000000,,2013-10-27 01:52:00,
2013-10-26 21:02:00,53.0,53.0,-100.00,NW,304,8.0,12.0,100,0.00,,,0.00,0.000000,,2013-10-27 02:02:00,
2013-10-26 21:42:00,51.0,51.0,-100.00,NW,312,7.0,10.0,100,0.00,,,0.00,0.000000,,2013-10-27 02:42:00,
2013-10-26 21:52:00,51.0,51.0,-100.00,NW,312,7.0,10.0,100,0.00,,,0.00,0.000000,,2013-10-27 02:52:00,
2013-10-26 22:02:00,51.0,51.0,-100.00,NW,312,7.0,10.0,100,0.00,,,0.00,0.000000,,2013-10-27 03:02:00,
2013-10-26 22:45:00,53.0,53.0,-100.00,SW,228,4.0,7.0,100,0.00,,,0.00,0.000000,,2013-10-27 03:45:00,
2013-10-26 22:55:00,53.0,53.0,-100.00,SW,228,4.0,7.0,100,0.00,,,0.00,0.000000,,2013-10-27 03:55:00,
2013-10-26 23:02:00,-999.0,-99.9,-100.00,SW,228,4.0,7.0,-999,-99.99,,,-99.99,0.000000,,2013-10-27 04:02:00,
2013-10-26 23:44:00,51.0,51.0,-100.00,NNW,339,3.0,6.0,100,0.00,,,0.00,0.000000,,2013-10-27 04:44:00,
2013-10-26 23:54:00,51.0,51.0,-100.00,NNW,339,3.0,6.0,100,0.00,,,0.00,0.000000,,2013-10-27 04:54:00,